Fulmar — WDD3992 — position and weather

sailwx.info

Track history (hours):
 
Tides and Currents Weather Stations Pressure Air Temp Water Temp Dewpoint Dewpoint Depression Visibility Wind Speed Wind Dir Waves Ship Positions

Oceanographic research ship Fulmar (United States)

Owner: NOAA R/V Fulmar, Monterey, CA. More information available from US FCC via Universal Licensing System.

Last reported at 2017-Apr-21 23:10 UTC. Time now 2017-Apr-23 15:54 UTC.
Position N 36°37' W 121°54'.

Length 20 m; draft 2 m.

Type: Ship. MMSI: 367139040.

Date/timePositionNaut miles runAvg speedWind from/ knotsBaromVisibWave heightAir tempDewpointWater temp
2017-Apr-21 23:10N 36°37' W 121°54'0 0.0
2017-Apr-21 23:01N 36°37' W 121°54'0 0.2
2017-Apr-21 22:31N 36°37' W 121°54'0 0.2
2017-Apr-21 22:01N 36°37' W 121°54'2 0.4
2017-Apr-21 17:46N 36°38' W 121°55'1 3.5
2017-Apr-21 17:30N 36°37' W 121°54'0 0.0
2017-Apr-21 17:00N 36°37' W 121°54'0 0.0
2017-Apr-21 16:30N 36°37' W 121°54'1 1.3
2017-Apr-21 16:00N 36°37' W 121°54'0 0.0
2017-Apr-21 15:30N 36°37' W 121°54'0 0.0
2017-Apr-21 15:00N 36°37' W 121°54'0 0.0
2017-Apr-21 14:30N 36°37' W 121°54'  
2017-Apr-18 04:29N 36°37' W 121°54'6 8.4
2017-Apr-18 03:50N 36°40' W 121°59'618.0
2017-Apr-18 03:30N 36°39' W 122°06'919.0
2017-Apr-18 03:00N 36°38' W 122°18'2 4.6
2017-Apr-18 02:30N 36°37' W 122°21'1 2.4
2017-Apr-18 02:00N 36°36' W 122°19'2 3.5
2017-Apr-18 01:30N 36°37' W 122°17'2 3.6
2017-Apr-18 01:00N 36°37' W 122°15'2 3.2
2017-Apr-18 00:30N 36°38' W 122°14'1 2.2
2017-Apr-18 00:00N 36°39' W 122°13'1 2.0
2017-Apr-17 23:30N 36°40' W 122°12'612.2
2017-Apr-17 23:00N 36°40' W 122°05'917.8
2017-Apr-17 22:29N 36°38' W 121°54'1 2.4
2017-Apr-17 22:00N 36°37' W 121°54'  
2017-Apr-12 16:44N 36°37' W 121°54'0 0.0
2017-Apr-12 16:30N 36°37' W 121°54'0 0.0
2017-Apr-12 16:00N 36°37' W 121°54'0 0.0
2017-Apr-12 15:30N 36°37' W 121°54'  
Track history (hours):
 
Tides and Currents Weather Stations Pressure Air Temp Water Temp Dewpoint Dewpoint Depression Visibility Wind Speed Wind Dir Waves Ship Positions

Oceanographic research ship Fulmar (United States)

Owner: NOAA R/V Fulmar, Monterey, CA. More information available from US FCC via Universal Licensing System.

Last reported at 2017-Apr-21 23:10 UTC. Time now 2017-Apr-23 15:54 UTC.
Position N 36°37' W 121°54'.

Length 20 m; draft 2 m.

Type: Ship. MMSI: 367139040.

Date/timePositionNaut miles runAvg speedWind from/ knotsBaromVisibWave heightAir tempDewpointWater temp
2017-Apr-21 23:10N 36°37' W 121°54'0 0.0
2017-Apr-21 23:01N 36°37' W 121°54'0 0.2
2017-Apr-21 22:31N 36°37' W 121°54'0 0.2
2017-Apr-21 22:01N 36°37' W 121°54'2 0.4
2017-Apr-21 17:46N 36°38' W 121°55'1 3.5
2017-Apr-21 17:30N 36°37' W 121°54'0 0.0
2017-Apr-21 17:00N 36°37' W 121°54'0 0.0
2017-Apr-21 16:30N 36°37' W 121°54'1 1.3
2017-Apr-21 16:00N 36°37' W 121°54'0 0.0
2017-Apr-21 15:30N 36°37' W 121°54'0 0.0
2017-Apr-21 15:00N 36°37' W 121°54'0 0.0
2017-Apr-21 14:30N 36°37' W 121°54'  
2017-Apr-18 04:29N 36°37' W 121°54'6 8.4
2017-Apr-18 03:50N 36°40' W 121°59'618.0
2017-Apr-18 03:30N 36°39' W 122°06'919.0
2017-Apr-18 03:00N 36°38' W 122°18'2 4.6
2017-Apr-18 02:30N 36°37' W 122°21'1 2.4
2017-Apr-18 02:00N 36°36' W 122°19'2 3.5
2017-Apr-18 01:30N 36°37' W 122°17'2 3.6
2017-Apr-18 01:00N 36°37' W 122°15'2 3.2
2017-Apr-18 00:30N 36°38' W 122°14'1 2.2
2017-Apr-18 00:00N 36°39' W 122°13'1 2.0
2017-Apr-17 23:30N 36°40' W 122°12'612.2
2017-Apr-17 23:00N 36°40' W 122°05'917.8
2017-Apr-17 22:29N 36°38' W 121°54'1 2.4
2017-Apr-17 22:00N 36°37' W 121°54'  
2017-Apr-12 16:44N 36°37' W 121°54'0 0.0
2017-Apr-12 16:30N 36°37' W 121°54'0 0.0
2017-Apr-12 16:00N 36°37' W 121°54'0 0.0
2017-Apr-12 15:30N 36°37' W 121°54'  

Dump ship's entire track history